SLCO

Details ICAO SLCO (CIJ)
Name HEROES DEL ACRE
Region Bolivia
Timezone America/La_Paz (UTC-4.0)
Plans Departing 10
Arriving 7
Stats Elevation 892 ft / 272 m (AMSL)
Location -11.040437° -68.782925°
Runways 1
Magnetic Variation 8.826° W
Sunrise 2018-05-21 10:46:01 UTC / 2018-05-21 06:46:01 Local
Sunset 2018-05-21 22:20:19 UTC / 2018-05-21 18:20:19 Local
Advertisement - Login to hide

Runways

ID Width Length Bearing (true) Bearing (mag) Surface Threshold Offset Overrun Length
02 98 ft / 30 m 6,613 ft / 2,016 m 10.61° 19.44° Asphalt 0 ft / 0 m 215 ft / 66 m
20 98 ft / 30 m 6,613 ft / 2,016 m 190.61° 199.44° Asphalt 0 ft / 0 m 215 ft / 66 m

Map

Weather


0- 5 10 15 20 25 30 35+ Temperature / ° C

Clouds and Precipitation
Forecast for 2018-05-21 18:00 UTC. Updated 9 minutes ago

Ground ~20,000 ft ~40,000 ft Winds

METAR

SLCO 211700Z 09003KT 9999 NSC 27/18 Q1014

TAF

TAF TAF SLCO 210500Z 2106/2206 00000KT 9999 NSC TX27/2118Z TN17/2110Z BECMG 2112/2114 13006KT FEW020 BECMG 2118/2120 03006KT

Frequencies

Tower 118.30 MHz COBIJA TWR
Warning: Do not use this data for real-world aviation or navigation. No guarantee of current accuracy is given.